Archival Weather

Eureka

Eureka, Canada (CWEU)

Report from: Tuesday, May 21, 2024 8:00 AM CDT
Current time: Saturday, June 22, 2024 3:25 AM CDT

Current weather – Weather history – Daily summaries
Weather forecast

Temperature-6.0°C (21.2°F)
Wind chill-9.5°C (14.8°F)
Dew point-9.0°C (15.8°F)
Winds 4 kts (2.1 m/s, 4.6 mph) Vrb
Winds variableWinds variable from North-Northeast (20°) to Southeast (130°)
Visibility15 mi. (24.1 km)
Clouds Few clouds 1,500 ft. (457 m)
Ceiling: Overcast 2,800 ft. (853 m)
Altimeter30.24 in.Hg (1024 mB)
Relative humidity79 %
Density altitude-2,962 ft. (-903 m)
Sea-level pressure102.5 kPa (1025 mB, 30.28 in.Hg)
Flight conditions Marginal Visual Meteorological Conditions
Raw dataCWEU 211300Z 05004KT 020V130 15SM FEW015 OVC028 M06/M09 A3024 RMK SC1SC8 SC TR SLP253
An error has occurred. This application may no longer respond until reloaded. Reload 🗙